Toni Pires — CUPT7 — position and weather

sailwx.info

Track history (hours):
 
Tides and Currents Weather Stations Pressure Air Temp Water Temp Dewpoint Dewpoint Depression Visibility Wind Speed Wind Dir Waves Ship Positions

Toni Pires

Last reported at 2017-Dec-17 23:27 UTC. Time now 2017-Dec-17 23:37 UTC.
Position N 37°08' W 008°32'.

Length 26 m; draft 12.4 m.

Type: Tanker. MMSI: 263578000.

Date/timePositionNaut miles runAvg speedWind from/ knotsBaromVisibWave heightAir tempDewpointWater temp
2017-Dec-17 23:27N 37°08' W 008°32'0 0.0
2017-Dec-17 23:00N 37°08' W 008°32'0 0.0
2017-Dec-17 21:56N 37°08' W 008°32'0 0.0
2017-Dec-17 21:19N 37°08' W 008°32'0 0.0
2017-Dec-17 20:49N 37°08' W 008°32'0 0.0
2017-Dec-17 20:16N 37°08' W 008°32'0 0.0
2017-Dec-17 19:54N 37°08' W 008°32'0 0.0
2017-Dec-17 19:20N 37°08' W 008°32'0 0.0
2017-Dec-17 18:53N 37°08' W 008°32'0 0.2
2017-Dec-17 18:29N 37°08' W 008°32'2 3.8
2017-Dec-17 18:00N 37°06' W 008°32'5 9.5
2017-Dec-17 17:30N 37°02' W 008°34'5 9.3
2017-Dec-17 17:00N 36°57' W 008°36'5 9.4
2017-Dec-17 16:30N 36°53' W 008°38'2 3.7
2017-Dec-17 16:00N 36°51' W 008°39'1 1.7
2017-Dec-17 15:29N 36°50' W 008°39'2 2.7
2017-Dec-17 14:50N 36°49' W 008°40'1 2.5
2017-Dec-17 14:30N 36°49' W 008°41'2 2.6
2017-Dec-17 13:50N 36°49' W 008°43'3 0.7
2017-Dec-17 09:47N 36°50' W 008°46'1 2.4
2017-Dec-17 09:29N 36°50' W 008°46'1 2.5
2017-Dec-17 09:00N 36°49' W 008°44'1 2.5
2017-Dec-17 08:30N 36°49' W 008°43'1 2.6
2017-Dec-17 08:00N 36°49' W 008°41'7 6.3
2017-Dec-17 06:54N 36°52' W 008°33'3 8.2
2017-Dec-17 06:30N 36°53' W 008°30'1 1.7
2017-Dec-17 06:00N 36°53' W 008°29'1 2.7
2017-Dec-17 05:30N 36°53' W 008°27'1 2.7
2017-Dec-17 05:00N 36°52' W 008°25'1 2.7
2017-Dec-17 04:30N 36°52' W 008°24'1 2.7
2017-Dec-17 04:00N 36°51' W 008°22'1 2.6
2017-Dec-17 03:30N 36°51' W 008°21'2 1.8
2017-Dec-17 02:33N 36°51' W 008°19'0 0.7
2017-Dec-17 02:20N 36°51' W 008°19'1 2.6
2017-Dec-17 02:00N 36°51' W 008°20'1 2.7
2017-Dec-17 01:30N 36°51' W 008°21'1 2.6
2017-Dec-17 01:00N 36°51' W 008°23'1 2.6
2017-Dec-17 00:30N 36°52' W 008°24'1 2.7
2017-Dec-17 00:00N 36°52' W 008°26'1 2.7
2017-Dec-16 23:30N 36°53' W 008°28'1 3.0
2017-Dec-16 23:00N 36°53' W 008°29'1 1.1
2017-Dec-16 22:30N 36°53' W 008°29'1 2.7
2017-Dec-16 21:59N 36°53' W 008°27'18 1.3
2017-Dec-16 08:14N 36°49' W 008°05'1 2.8
2017-Dec-16 07:56N 36°49' W 008°06'1 2.8
2017-Dec-16 07:29N 36°49' W 008°07'4 5.8
2017-Dec-16 06:52N 36°49' W 008°12'3 9.6
2017-Dec-16 06:30N 36°50' W 008°16'1 2.2
2017-Dec-16 06:00N 36°51' W 008°17'2 2.8
2017-Dec-16 05:16N 36°51' W 008°20'1 2.8
2017-Dec-16 05:00N 36°51' W 008°21'1 2.8
2017-Dec-16 04:30N 36°51' W 008°22'1 2.8
2017-Dec-16 04:00N 36°52' W 008°24'1 2.9
2017-Dec-16 03:30N 36°52' W 008°26'1 2.8
2017-Dec-16 03:00N 36°53' W 008°27'2 3.4
2017-Dec-16 02:30N 36°53' W 008°29'0 0.5
2017-Dec-16 02:00N 36°53' W 008°29'1 2.6
2017-Dec-16 01:30N 36°53' W 008°27'2 2.7
2017-Dec-16 00:55N 36°52' W 008°25'5 1.5
2017-Dec-15 21:45N 36°51' W 008°20'1 2.8
2017-Dec-15 21:26N 36°51' W 008°21'1 3.0
2017-Dec-15 21:00N 36°51' W 008°22'1 2.9
2017-Dec-15 20:30N 36°52' W 008°24'1 2.9
2017-Dec-15 20:00N 36°52' W 008°26'1 2.9
2017-Dec-15 19:30N 36°53' W 008°27'2 3.5
2017-Dec-15 19:00N 36°53' W 008°30'5 9.4
2017-Dec-15 18:29N 36°50' W 008°35'5 8.1
2017-Dec-15 17:49N 36°48' W 008°41'0 0.6
2017-Dec-15 17:21N 36°48' W 008°41'1 2.8
2017-Dec-15 16:58N 36°48' W 008°42'1 2.8
2017-Dec-15 16:30N 36°48' W 008°44'2 0.3
2017-Dec-15 10:21N 36°49' W 008°41'1 2.6
2017-Dec-15 10:00N 36°49' W 008°42'19 3.2
2017-Dec-15 03:50N 37°07' W 008°32'1 1.1
2017-Dec-15 02:30N 37°08' W 008°32'0 0.0
2017-Dec-15 00:52N 37°08' W 008°32'0 0.0
2017-Dec-15 00:24N 37°08' W 008°32'12 2.1
2017-Dec-14 18:30N 36°56' W 008°36'5 9.4
2017-Dec-14 18:00N 36°52' W 008°38'1 2.1
2017-Dec-14 17:30N 36°51' W 008°39'2 3.0
2017-Dec-14 16:59N 36°50' W 008°39'2 2.7
2017-Dec-14 16:25N 36°49' W 008°41'1 2.9
2017-Dec-14 16:00N 36°49' W 008°42'1 0.1
2017-Dec-14 09:25N 36°49' W 008°41'1 2.6
2017-Dec-14 08:56N 36°49' W 008°43'1 0.4
2017-Dec-14 05:07N 36°51' W 008°44'1 8.4
2017-Dec-14 05:00N 36°51' W 008°43'4 8.0
2017-Dec-14 04:30N 36°52' W 008°38'6 8.2
2017-Dec-14 03:47N 36°53' W 008°31'1 3.4
2017-Dec-14 03:30N 36°53' W 008°29'1 1.7
2017-Dec-14 03:00N 36°53' W 008°28'1 2.7
2017-Dec-14 02:30N 36°53' W 008°27'1 2.7
2017-Dec-14 01:57N 36°52' W 008°25'1 2.7
2017-Dec-14 01:29N 36°52' W 008°24'2 2.7
2017-Dec-14 00:50N 36°51' W 008°21'3 2.9
2017-Dec-13 23:42N 36°51' W 008°17'2 2.1
2017-Dec-13 22:35N 36°51' W 008°20'1 2.8
2017-Dec-13 22:20N 36°51' W 008°21'2 2.7
2017-Dec-13 21:42N 36°52' W 008°23'1 1.4
2017-Dec-13 20:50N 36°52' W 008°25'2 2.8
2017-Dec-13 20:03N 36°52' W 008°27'7 0.9
2017-Dec-13 11:48N 36°48' W 008°20'3 3.0
2017-Dec-13 10:46N 36°48' W 008°24'2 2.0
2017-Dec-13 09:52N 36°48' W 008°21'1 2.8
2017-Dec-13 09:27N 36°48' W 008°20'3 2.8
2017-Dec-13 08:14N 36°48' W 008°16'1 2.8
2017-Dec-13 07:59N 36°48' W 008°15'2 3.0
2017-Dec-13 07:16N 36°48' W 008°12'1 3.0
2017-Dec-13 06:59N 36°48' W 008°11'5 4.8
2017-Dec-13 05:58N 36°53' W 008°14'4 9.3
2017-Dec-13 05:30N 36°55' W 008°18'5 9.2
2017-Dec-13 05:01N 36°59' W 008°22'5 9.3
2017-Dec-13 04:30N 37°02' W 008°26'5 9.4
2017-Dec-13 04:00N 37°05' W 008°30'3 5.8
2017-Dec-13 03:29N 37°08' W 008°32'0 0.0
2017-Dec-13 02:59N 37°08' W 008°32'0 0.0
2017-Dec-13 02:26N 37°08' W 008°32'0 0.0
2017-Dec-13 01:50N 37°08' W 008°32'0 0.0
2017-Dec-13 01:25N 37°08' W 008°32'0 0.0
2017-Dec-13 00:49N 37°08' W 008°32'0 0.0
2017-Dec-13 00:25N 37°08' W 008°32'0 0.0
2017-Dec-12 23:56N 37°08' W 008°32'0 0.0
2017-Dec-12 23:22N 37°08' W 008°32'0 0.0
2017-Dec-12 21:39N 37°08' W 008°32'0 0.0
2017-Dec-12 21:27N 37°08' W 008°32'0 0.0
2017-Dec-12 21:00N 37°08' W 008°32'0 0.0
2017-Dec-12 20:25N 37°08' W 008°32'0 1.0
2017-Dec-12 20:00N 37°08' W 008°32'4 8.7
2017-Dec-12 19:30N 37°03' W 008°30'4 9.1
2017-Dec-12 19:00N 36°59' W 008°28'5 9.3
2017-Dec-12 18:29N 36°55' W 008°25'18 1.8
2017-Dec-12 08:25N 36°50' W 008°03'1 2.5
2017-Dec-12 07:49N 36°50' W 008°05'1 2.5
2017-Dec-12 07:27N 36°49' W 008°06'1 2.5
2017-Dec-12 06:58N 36°49' W 008°07'5 4.3
2017-Dec-12 05:47N 36°50' W 008°13'2 4.6
2017-Dec-12 05:25N 36°50' W 008°15'2 4.7
2017-Dec-12 04:58N 36°51' W 008°18'2 4.4
2017-Dec-12 04:30N 36°51' W 008°20'2 4.5
2017-Dec-12 04:00N 36°52' W 008°23'2 4.7
2017-Dec-12 03:30N 36°53' W 008°26'2 4.8
2017-Dec-12 03:00N 36°53' W 008°29'0 0.9
2017-Dec-12 02:30N 36°53' W 008°29'1 2.7
2017-Dec-12 02:00N 36°53' W 008°28'1 2.6
2017-Dec-12 01:30N 36°53' W 008°26'2 2.6
2017-Dec-12 00:56N 36°52' W 008°24'1 2.7
2017-Dec-12 00:30N 36°51' W 008°23'5 2.7
2017-Dec-11 22:46N 36°51' W 008°17'0 1.6
2017-Dec-11 22:29N 36°51' W 008°18'1 2.6
2017-Dec-11 21:56N 36°51' W 008°20'1 2.7
2017-Dec-11 21:30N 36°51' W 008°21'1 2.7
2017-Dec-11 20:58N 36°52' W 008°23'1 2.7
2017-Dec-11 20:30N 36°52' W 008°24'2 2.9
2017-Dec-11 19:52N 36°53' W 008°26'1 2.8
2017-Dec-11 19:30N 36°53' W 008°28'1 2.8
2017-Dec-11 19:00N 36°53' W 008°29'8 1.6
2017-Dec-11 14:07N 36°48' W 008°22'5 2.8
2017-Dec-11 12:26N 36°49' W 008°28'8 6.7
2017-Dec-11 11:16N 36°56' W 008°30'3 9.7
2017-Dec-11 11:00N 36°59' W 008°31'5 9.6
2017-Dec-11 10:30N 37°04' W 008°31'4 8.6
2017-Dec-11 10:00N 37°08' W 008°32'0 0.1
2017-Dec-11 09:30N 37°08' W 008°32'0 0.0
2017-Dec-11 08:59N 37°08' W 008°32'0 0.0
2017-Dec-11 08:29N 37°08' W 008°32'0 0.0
2017-Dec-11 07:59N 37°08' W 008°32'0 0.0
2017-Dec-11 07:26N 37°08' W 008°32'0 0.0
2017-Dec-11 06:44N 37°08' W 008°32'0 0.0
2017-Dec-11 06:26N 37°08' W 008°32'0 0.0
2017-Dec-11 06:00N 37°08' W 008°32'0 0.0
2017-Dec-11 05:28N 37°08' W 008°32'0 0.0
2017-Dec-11 04:57N 37°08' W 008°32'0 0.0
2017-Dec-11 04:27N 37°08' W 008°32'0 0.0
2017-Dec-11 03:59N 37°08' W 008°32'0 0.0
2017-Dec-11 03:25N 37°08' W 008°32'0 0.0
2017-Dec-11 03:00N 37°08' W 008°32'0 0.0
2017-Dec-11 02:27N 37°08' W 008°32'0 0.0
2017-Dec-11 01:59N 37°08' W 008°32'0 0.0
2017-Dec-11 01:29N 37°08' W 008°32'0 0.0
2017-Dec-11 00:58N 37°08' W 008°32'0 0.0
2017-Dec-11 00:28N 37°08' W 008°32'0 0.0
2017-Dec-10 23:58N 37°08' W 008°32'0 0.0
2017-Dec-10 23:29N 37°08' W 008°32'0 0.0
2017-Dec-10 22:56N 37°08' W 008°32'0 0.0
2017-Dec-10 22:25N 37°08' W 008°32'0 0.0
2017-Dec-10 22:00N 37°08' W 008°32'0 0.0
2017-Dec-10 21:26N 37°08' W 008°32'0 0.0
2017-Dec-10 20:59N 37°08' W 008°32'0 0.0
2017-Dec-10 20:28N 37°08' W 008°32'0 0.0
2017-Dec-10 19:50N 37°08' W 008°32'0 0.0
2017-Dec-10 19:29N 37°08' W 008°32'0 0.0
2017-Dec-10 18:59N 37°08' W 008°32'0 0.0
2017-Dec-10 18:30N 37°08' W 008°32'0 0.0
2017-Dec-10 18:00N 37°08' W 008°32'0 0.0
2017-Dec-10 17:30N 37°08' W 008°32'0 0.0
2017-Dec-10 16:59N 37°08' W 008°32'0 0.0
2017-Dec-10 16:30N 37°08' W 008°32'0 0.0
2017-Dec-10 15:59N 37°08' W 008°32'0 0.0
2017-Dec-10 15:25N 37°08' W 008°32'0 0.0
2017-Dec-10 14:58N 37°08' W 008°32'0 0.0
2017-Dec-10 14:28N 37°08' W 008°32'0 0.5
2017-Dec-10 14:00N 37°08' W 008°32'4 7.8
2017-Dec-10 13:30N 37°04' W 008°30'4 8.4
2017-Dec-10 13:01N 37°01' W 008°27'4 8.7
2017-Dec-10 12:30N 36°58' W 008°23'7 8.8
2017-Dec-10 11:41N 36°52' W 008°17'5 1.4
2017-Dec-10 08:23N 36°48' W 008°21'1 2.7
2017-Dec-10 08:01N 36°48' W 008°22'1 2.8
2017-Dec-10 07:30N 36°48' W 008°24'2 3.3
2017-Dec-10 07:00N 36°49' W 008°26'2 4.1
2017-Dec-10 06:30N 36°50' W 008°27'2 4.8
2017-Dec-10 06:01N 36°52' W 008°29'1 1.8
2017-Dec-10 05:31N 36°53' W 008°29'1 2.8
2017-Dec-10 05:00N 36°53' W 008°27'1 2.8
2017-Dec-10 04:29N 36°52' W 008°26'1 2.9
2017-Dec-10 04:00N 36°52' W 008°24'1 2.9
2017-Dec-10 03:31N 36°51' W 008°22'2 0.8
2017-Dec-10 01:13N 36°51' W 008°20'1 2.9
2017-Dec-10 00:59N 36°51' W 008°21'1 2.8
2017-Dec-10 00:29N 36°51' W 008°23'1 2.8
2017-Dec-10 00:00N 36°52' W 008°24'1 2.9
2017-Dec-09 23:30N 36°52' W 008°26'1 2.8
2017-Dec-09 23:00N 36°53' W 008°27'2 3.0
2017-Dec-09 22:31N 36°53' W 008°29'1 1.7
2017-Dec-09 22:00N 36°53' W 008°28'2 3.1
2017-Dec-09 21:30N 36°52' W 008°26'2 3.0
2017-Dec-09 21:00N 36°52' W 008°25'2 3.0
2017-Dec-09 20:30N 36°51' W 008°23'1 2.9
2017-Dec-09 20:00N 36°51' W 008°21'1 2.9
2017-Dec-09 19:30N 36°51' W 008°19'1 2.9
2017-Dec-09 18:59N 36°51' W 008°17'2 3.2
2017-Dec-09 18:30N 36°51' W 008°15'4 7.9
2017-Dec-09 17:56N 36°49' W 008°10'3 5.2
2017-Dec-09 17:25N 36°48' W 008°07'1 1.6
2017-Dec-09 17:00N 36°48' W 008°08'2 3.0
2017-Dec-09 16:25N 36°48' W 008°10'7 2.4
2017-Dec-09 13:28N 36°48' W 008°19'1 3.0
2017-Dec-09 13:00N 36°48' W 008°21'2 3.0
2017-Dec-09 12:26N 36°48' W 008°23'1 2.9
2017-Dec-09 12:00N 36°48' W 008°24'2 2.9
2017-Dec-09 11:25N 36°48' W 008°26'1 3.2
2017-Dec-09 11:00N 36°48' W 008°28'2 1.4
2017-Dec-09 09:20N 36°48' W 008°25'4 1.4
2017-Dec-09 06:39N 36°48' W 008°21'1 9.0
2017-Dec-09 06:30N 36°49' W 008°22'4 7.9
2017-Dec-09 06:00N 36°52' W 008°25'4 7.3
2017-Dec-09 05:30N 36°53' W 008°29'1 1.9
2017-Dec-09 05:00N 36°53' W 008°28'1 3.0
2017-Dec-09 04:31N 36°53' W 008°27'2 2.9
2017-Dec-09 03:57N 36°52' W 008°25'1 2.9
2017-Dec-09 03:28N 36°51' W 008°23'2 2.9
2017-Dec-09 02:51N 36°51' W 008°21'1 0.6
2017-Dec-09 01:00N 36°51' W 008°19'1 2.8
2017-Dec-09 00:30N 36°51' W 008°21'2 2.9
2017-Dec-08 23:57N 36°51' W 008°23'1 2.9
2017-Dec-08 23:30N 36°52' W 008°25'1 2.9
2017-Dec-08 23:00N 36°53' W 008°26'1 3.0
2017-Dec-08 22:30N 36°53' W 008°28'1 2.1
2017-Dec-08 21:58N 36°53' W 008°29'1 1.8
2017-Dec-08 21:31N 36°53' W 008°28'1 2.8
2017-Dec-08 21:00N 36°53' W 008°27'1 2.8
2017-Dec-08 20:30N 36°52' W 008°25'1 2.8
2017-Dec-08 19:58N 36°52' W 008°23'1 2.8
2017-Dec-08 19:30N 36°51' W 008°22'1 2.9
2017-Dec-08 19:00N 36°51' W 008°20'6 2.1
2017-Dec-08 16:15N 36°47' W 008°14'1 2.7
2017-Dec-08 16:00N 36°48' W 008°13'1 2.8
2017-Dec-08 15:30N 36°48' W 008°12'1 2.7
2017-Dec-08 15:00N 36°48' W 008°10'2 2.7
2017-Dec-08 14:23N 36°49' W 008°08'0 0.7
2017-Dec-08 13:59N 36°49' W 008°08'1 2.8
2017-Dec-08 13:29N 36°49' W 008°06'1 2.7
2017-Dec-08 13:00N 36°50' W 008°05'5 1.7
2017-Dec-08 09:50N 36°51' W 007°58'1 2.8
2017-Dec-08 09:30N 36°51' W 007°59'1 2.7
2017-Dec-08 08:58N 36°50' W 008°01'1 2.8
2017-Dec-08 08:29N 36°50' W 008°03'1 2.7
2017-Dec-08 08:00N 36°50' W 008°04'1 2.8
2017-Dec-08 07:30N 36°49' W 008°06'2 3.3
2017-Dec-08 06:57N 36°49' W 008°08'3 7.4
2017-Dec-08 06:29N 36°50' W 008°12'2 4.1
2017-Dec-08 06:00N 36°51' W 008°15'1 2.8
2017-Dec-08 05:30N 36°51' W 008°16'1 2.8
2017-Dec-08 05:00N 36°51' W 008°18'1 2.9
2017-Dec-08 04:30N 36°51' W 008°20'2 3.1
2017-Dec-08 04:00N 36°51' W 008°22'3 6.5
2017-Dec-08 03:30N 36°51' W 008°18'0 0.8
2017-Dec-08 03:00N 36°51' W 008°17'1 2.8
2017-Dec-08 02:30N 36°51' W 008°19'1 3.0
2017-Dec-08 02:00N 36°51' W 008°21'1 2.9
2017-Dec-08 01:30N 36°52' W 008°23'1 2.7
2017-Dec-08 01:00N 36°52' W 008°24'1 2.8
2017-Dec-08 00:30N 36°52' W 008°26'1 2.9
2017-Dec-08 00:00N 36°53' W 008°27'2 3.2
2017-Dec-07 23:30N 36°53' W 008°29'  
Track history (hours):
 
Tides and Currents Weather Stations Pressure Air Temp Water Temp Dewpoint Dewpoint Depression Visibility Wind Speed Wind Dir Waves Ship Positions

Toni Pires

Last reported at 2017-Dec-17 23:27 UTC. Time now 2017-Dec-17 23:37 UTC.
Position N 37°08' W 008°32'.

Length 26 m; draft 12.4 m.

Type: Tanker. MMSI: 263578000.

Date/timePositionNaut miles runAvg speedWind from/ knotsBaromVisibWave heightAir tempDewpointWater temp
2017-Dec-17 23:27N 37°08' W 008°32'0 0.0
2017-Dec-17 23:00N 37°08' W 008°32'0 0.0
2017-Dec-17 21:56N 37°08' W 008°32'0 0.0
2017-Dec-17 21:19N 37°08' W 008°32'0 0.0
2017-Dec-17 20:49N 37°08' W 008°32'0 0.0
2017-Dec-17 20:16N 37°08' W 008°32'0 0.0
2017-Dec-17 19:54N 37°08' W 008°32'0 0.0
2017-Dec-17 19:20N 37°08' W 008°32'0 0.0
2017-Dec-17 18:53N 37°08' W 008°32'0 0.2
2017-Dec-17 18:29N 37°08' W 008°32'2 3.8
2017-Dec-17 18:00N 37°06' W 008°32'5 9.5
2017-Dec-17 17:30N 37°02' W 008°34'5 9.3
2017-Dec-17 17:00N 36°57' W 008°36'5 9.4
2017-Dec-17 16:30N 36°53' W 008°38'2 3.7
2017-Dec-17 16:00N 36°51' W 008°39'1 1.7
2017-Dec-17 15:29N 36°50' W 008°39'2 2.7
2017-Dec-17 14:50N 36°49' W 008°40'1 2.5
2017-Dec-17 14:30N 36°49' W 008°41'2 2.6
2017-Dec-17 13:50N 36°49' W 008°43'3 0.7
2017-Dec-17 09:47N 36°50' W 008°46'1 2.4
2017-Dec-17 09:29N 36°50' W 008°46'1 2.5
2017-Dec-17 09:00N 36°49' W 008°44'1 2.5
2017-Dec-17 08:30N 36°49' W 008°43'1 2.6
2017-Dec-17 08:00N 36°49' W 008°41'7 6.3
2017-Dec-17 06:54N 36°52' W 008°33'3 8.2
2017-Dec-17 06:30N 36°53' W 008°30'1 1.7
2017-Dec-17 06:00N 36°53' W 008°29'1 2.7
2017-Dec-17 05:30N 36°53' W 008°27'1 2.7
2017-Dec-17 05:00N 36°52' W 008°25'1 2.7
2017-Dec-17 04:30N 36°52' W 008°24'1 2.7
2017-Dec-17 04:00N 36°51' W 008°22'1 2.6
2017-Dec-17 03:30N 36°51' W 008°21'2 1.8
2017-Dec-17 02:33N 36°51' W 008°19'0 0.7
2017-Dec-17 02:20N 36°51' W 008°19'1 2.6
2017-Dec-17 02:00N 36°51' W 008°20'1 2.7
2017-Dec-17 01:30N 36°51' W 008°21'1 2.6
2017-Dec-17 01:00N 36°51' W 008°23'1 2.6
2017-Dec-17 00:30N 36°52' W 008°24'1 2.7
2017-Dec-17 00:00N 36°52' W 008°26'1 2.7
2017-Dec-16 23:30N 36°53' W 008°28'1 3.0
2017-Dec-16 23:00N 36°53' W 008°29'1 1.1
2017-Dec-16 22:30N 36°53' W 008°29'1 2.7
2017-Dec-16 21:59N 36°53' W 008°27'18 1.3
2017-Dec-16 08:14N 36°49' W 008°05'1 2.8
2017-Dec-16 07:56N 36°49' W 008°06'1 2.8
2017-Dec-16 07:29N 36°49' W 008°07'4 5.8
2017-Dec-16 06:52N 36°49' W 008°12'3 9.6
2017-Dec-16 06:30N 36°50' W 008°16'1 2.2
2017-Dec-16 06:00N 36°51' W 008°17'2 2.8
2017-Dec-16 05:16N 36°51' W 008°20'1 2.8
2017-Dec-16 05:00N 36°51' W 008°21'1 2.8
2017-Dec-16 04:30N 36°51' W 008°22'1 2.8
2017-Dec-16 04:00N 36°52' W 008°24'1 2.9
2017-Dec-16 03:30N 36°52' W 008°26'1 2.8
2017-Dec-16 03:00N 36°53' W 008°27'2 3.4
2017-Dec-16 02:30N 36°53' W 008°29'0 0.5
2017-Dec-16 02:00N 36°53' W 008°29'1 2.6
2017-Dec-16 01:30N 36°53' W 008°27'2 2.7
2017-Dec-16 00:55N 36°52' W 008°25'5 1.5
2017-Dec-15 21:45N 36°51' W 008°20'1 2.8
2017-Dec-15 21:26N 36°51' W 008°21'1 3.0
2017-Dec-15 21:00N 36°51' W 008°22'1 2.9
2017-Dec-15 20:30N 36°52' W 008°24'1 2.9
2017-Dec-15 20:00N 36°52' W 008°26'1 2.9
2017-Dec-15 19:30N 36°53' W 008°27'2 3.5
2017-Dec-15 19:00N 36°53' W 008°30'5 9.4
2017-Dec-15 18:29N 36°50' W 008°35'5 8.1
2017-Dec-15 17:49N 36°48' W 008°41'0 0.6
2017-Dec-15 17:21N 36°48' W 008°41'1 2.8
2017-Dec-15 16:58N 36°48' W 008°42'1 2.8
2017-Dec-15 16:30N 36°48' W 008°44'2 0.3
2017-Dec-15 10:21N 36°49' W 008°41'1 2.6
2017-Dec-15 10:00N 36°49' W 008°42'19 3.2
2017-Dec-15 03:50N 37°07' W 008°32'1 1.1
2017-Dec-15 02:30N 37°08' W 008°32'0 0.0
2017-Dec-15 00:52N 37°08' W 008°32'0 0.0
2017-Dec-15 00:24N 37°08' W 008°32'12 2.1
2017-Dec-14 18:30N 36°56' W 008°36'5 9.4
2017-Dec-14 18:00N 36°52' W 008°38'1 2.1
2017-Dec-14 17:30N 36°51' W 008°39'2 3.0
2017-Dec-14 16:59N 36°50' W 008°39'2 2.7
2017-Dec-14 16:25N 36°49' W 008°41'1 2.9
2017-Dec-14 16:00N 36°49' W 008°42'1 0.1
2017-Dec-14 09:25N 36°49' W 008°41'1 2.6
2017-Dec-14 08:56N 36°49' W 008°43'1 0.4
2017-Dec-14 05:07N 36°51' W 008°44'1 8.4
2017-Dec-14 05:00N 36°51' W 008°43'4 8.0
2017-Dec-14 04:30N 36°52' W 008°38'6 8.2
2017-Dec-14 03:47N 36°53' W 008°31'1 3.4
2017-Dec-14 03:30N 36°53' W 008°29'1 1.7
2017-Dec-14 03:00N 36°53' W 008°28'1 2.7
2017-Dec-14 02:30N 36°53' W 008°27'1 2.7
2017-Dec-14 01:57N 36°52' W 008°25'1 2.7
2017-Dec-14 01:29N 36°52' W 008°24'2 2.7
2017-Dec-14 00:50N 36°51' W 008°21'3 2.9
2017-Dec-13 23:42N 36°51' W 008°17'2 2.1
2017-Dec-13 22:35N 36°51' W 008°20'1 2.8
2017-Dec-13 22:20N 36°51' W 008°21'2 2.7
2017-Dec-13 21:42N 36°52' W 008°23'1 1.4
2017-Dec-13 20:50N 36°52' W 008°25'2 2.8
2017-Dec-13 20:03N 36°52' W 008°27'7 0.9
2017-Dec-13 11:48N 36°48' W 008°20'3 3.0
2017-Dec-13 10:46N 36°48' W 008°24'2 2.0
2017-Dec-13 09:52N 36°48' W 008°21'1 2.8
2017-Dec-13 09:27N 36°48' W 008°20'3 2.8
2017-Dec-13 08:14N 36°48' W 008°16'1 2.8
2017-Dec-13 07:59N 36°48' W 008°15'2 3.0
2017-Dec-13 07:16N 36°48' W 008°12'1 3.0
2017-Dec-13 06:59N 36°48' W 008°11'5 4.8
2017-Dec-13 05:58N 36°53' W 008°14'4 9.3
2017-Dec-13 05:30N 36°55' W 008°18'5 9.2
2017-Dec-13 05:01N 36°59' W 008°22'5 9.3
2017-Dec-13 04:30N 37°02' W 008°26'5 9.4
2017-Dec-13 04:00N 37°05' W 008°30'3 5.8
2017-Dec-13 03:29N 37°08' W 008°32'0 0.0
2017-Dec-13 02:59N 37°08' W 008°32'0 0.0
2017-Dec-13 02:26N 37°08' W 008°32'0 0.0
2017-Dec-13 01:50N 37°08' W 008°32'0 0.0
2017-Dec-13 01:25N 37°08' W 008°32'0 0.0
2017-Dec-13 00:49N 37°08' W 008°32'0 0.0
2017-Dec-13 00:25N 37°08' W 008°32'0 0.0
2017-Dec-12 23:56N 37°08' W 008°32'0 0.0
2017-Dec-12 23:22N 37°08' W 008°32'0 0.0
2017-Dec-12 21:39N 37°08' W 008°32'0 0.0
2017-Dec-12 21:27N 37°08' W 008°32'0 0.0
2017-Dec-12 21:00N 37°08' W 008°32'0 0.0
2017-Dec-12 20:25N 37°08' W 008°32'0 1.0
2017-Dec-12 20:00N 37°08' W 008°32'4 8.7
2017-Dec-12 19:30N 37°03' W 008°30'4 9.1
2017-Dec-12 19:00N 36°59' W 008°28'5 9.3
2017-Dec-12 18:29N 36°55' W 008°25'18 1.8
2017-Dec-12 08:25N 36°50' W 008°03'1 2.5
2017-Dec-12 07:49N 36°50' W 008°05'1 2.5
2017-Dec-12 07:27N 36°49' W 008°06'1 2.5
2017-Dec-12 06:58N 36°49' W 008°07'5 4.3
2017-Dec-12 05:47N 36°50' W 008°13'2 4.6
2017-Dec-12 05:25N 36°50' W 008°15'2 4.7
2017-Dec-12 04:58N 36°51' W 008°18'2 4.4
2017-Dec-12 04:30N 36°51' W 008°20'2 4.5
2017-Dec-12 04:00N 36°52' W 008°23'2 4.7
2017-Dec-12 03:30N 36°53' W 008°26'2 4.8
2017-Dec-12 03:00N 36°53' W 008°29'0 0.9
2017-Dec-12 02:30N 36°53' W 008°29'1 2.7
2017-Dec-12 02:00N 36°53' W 008°28'1 2.6
2017-Dec-12 01:30N 36°53' W 008°26'2 2.6
2017-Dec-12 00:56N 36°52' W 008°24'1 2.7
2017-Dec-12 00:30N 36°51' W 008°23'5 2.7
2017-Dec-11 22:46N 36°51' W 008°17'0 1.6
2017-Dec-11 22:29N 36°51' W 008°18'1 2.6
2017-Dec-11 21:56N 36°51' W 008°20'1 2.7
2017-Dec-11 21:30N 36°51' W 008°21'1 2.7
2017-Dec-11 20:58N 36°52' W 008°23'1 2.7
2017-Dec-11 20:30N 36°52' W 008°24'2 2.9
2017-Dec-11 19:52N 36°53' W 008°26'1 2.8
2017-Dec-11 19:30N 36°53' W 008°28'1 2.8
2017-Dec-11 19:00N 36°53' W 008°29'8 1.6
2017-Dec-11 14:07N 36°48' W 008°22'5 2.8
2017-Dec-11 12:26N 36°49' W 008°28'8 6.7
2017-Dec-11 11:16N 36°56' W 008°30'3 9.7
2017-Dec-11 11:00N 36°59' W 008°31'5 9.6
2017-Dec-11 10:30N 37°04' W 008°31'4 8.6
2017-Dec-11 10:00N 37°08' W 008°32'0 0.1
2017-Dec-11 09:30N 37°08' W 008°32'0 0.0
2017-Dec-11 08:59N 37°08' W 008°32'0 0.0
2017-Dec-11 08:29N 37°08' W 008°32'0 0.0
2017-Dec-11 07:59N 37°08' W 008°32'0 0.0
2017-Dec-11 07:26N 37°08' W 008°32'0 0.0
2017-Dec-11 06:44N 37°08' W 008°32'0 0.0
2017-Dec-11 06:26N 37°08' W 008°32'0 0.0
2017-Dec-11 06:00N 37°08' W 008°32'0 0.0
2017-Dec-11 05:28N 37°08' W 008°32'0 0.0
2017-Dec-11 04:57N 37°08' W 008°32'0 0.0
2017-Dec-11 04:27N 37°08' W 008°32'0 0.0
2017-Dec-11 03:59N 37°08' W 008°32'0 0.0
2017-Dec-11 03:25N 37°08' W 008°32'0 0.0
2017-Dec-11 03:00N 37°08' W 008°32'0 0.0
2017-Dec-11 02:27N 37°08' W 008°32'0 0.0
2017-Dec-11 01:59N 37°08' W 008°32'0 0.0
2017-Dec-11 01:29N 37°08' W 008°32'0 0.0
2017-Dec-11 00:58N 37°08' W 008°32'0 0.0
2017-Dec-11 00:28N 37°08' W 008°32'0 0.0
2017-Dec-10 23:58N 37°08' W 008°32'0 0.0
2017-Dec-10 23:29N 37°08' W 008°32'0 0.0
2017-Dec-10 22:56N 37°08' W 008°32'0 0.0
2017-Dec-10 22:25N 37°08' W 008°32'0 0.0
2017-Dec-10 22:00N 37°08' W 008°32'0 0.0
2017-Dec-10 21:26N 37°08' W 008°32'0 0.0
2017-Dec-10 20:59N 37°08' W 008°32'0 0.0
2017-Dec-10 20:28N 37°08' W 008°32'0 0.0
2017-Dec-10 19:50N 37°08' W 008°32'0 0.0
2017-Dec-10 19:29N 37°08' W 008°32'0 0.0
2017-Dec-10 18:59N 37°08' W 008°32'0 0.0
2017-Dec-10 18:30N 37°08' W 008°32'0 0.0
2017-Dec-10 18:00N 37°08' W 008°32'0 0.0
2017-Dec-10 17:30N 37°08' W 008°32'0 0.0
2017-Dec-10 16:59N 37°08' W 008°32'0 0.0
2017-Dec-10 16:30N 37°08' W 008°32'0 0.0
2017-Dec-10 15:59N 37°08' W 008°32'0 0.0
2017-Dec-10 15:25N 37°08' W 008°32'0 0.0
2017-Dec-10 14:58N 37°08' W 008°32'0 0.0
2017-Dec-10 14:28N 37°08' W 008°32'0 0.5
2017-Dec-10 14:00N 37°08' W 008°32'4 7.8
2017-Dec-10 13:30N 37°04' W 008°30'4 8.4
2017-Dec-10 13:01N 37°01' W 008°27'4 8.7
2017-Dec-10 12:30N 36°58' W 008°23'7 8.8
2017-Dec-10 11:41N 36°52' W 008°17'5 1.4
2017-Dec-10 08:23N 36°48' W 008°21'1 2.7
2017-Dec-10 08:01N 36°48' W 008°22'1 2.8
2017-Dec-10 07:30N 36°48' W 008°24'2 3.3
2017-Dec-10 07:00N 36°49' W 008°26'2 4.1
2017-Dec-10 06:30N 36°50' W 008°27'2 4.8
2017-Dec-10 06:01N 36°52' W 008°29'1 1.8
2017-Dec-10 05:31N 36°53' W 008°29'1 2.8
2017-Dec-10 05:00N 36°53' W 008°27'1 2.8
2017-Dec-10 04:29N 36°52' W 008°26'1 2.9
2017-Dec-10 04:00N 36°52' W 008°24'1 2.9
2017-Dec-10 03:31N 36°51' W 008°22'2 0.8
2017-Dec-10 01:13N 36°51' W 008°20'1 2.9
2017-Dec-10 00:59N 36°51' W 008°21'1 2.8
2017-Dec-10 00:29N 36°51' W 008°23'1 2.8
2017-Dec-10 00:00N 36°52' W 008°24'1 2.9
2017-Dec-09 23:30N 36°52' W 008°26'1 2.8
2017-Dec-09 23:00N 36°53' W 008°27'2 3.0
2017-Dec-09 22:31N 36°53' W 008°29'1 1.7
2017-Dec-09 22:00N 36°53' W 008°28'2 3.1
2017-Dec-09 21:30N 36°52' W 008°26'2 3.0
2017-Dec-09 21:00N 36°52' W 008°25'2 3.0
2017-Dec-09 20:30N 36°51' W 008°23'1 2.9
2017-Dec-09 20:00N 36°51' W 008°21'1 2.9
2017-Dec-09 19:30N 36°51' W 008°19'1 2.9
2017-Dec-09 18:59N 36°51' W 008°17'2 3.2
2017-Dec-09 18:30N 36°51' W 008°15'4 7.9
2017-Dec-09 17:56N 36°49' W 008°10'3 5.2
2017-Dec-09 17:25N 36°48' W 008°07'1 1.6
2017-Dec-09 17:00N 36°48' W 008°08'2 3.0
2017-Dec-09 16:25N 36°48' W 008°10'7 2.4
2017-Dec-09 13:28N 36°48' W 008°19'1 3.0
2017-Dec-09 13:00N 36°48' W 008°21'2 3.0
2017-Dec-09 12:26N 36°48' W 008°23'1 2.9
2017-Dec-09 12:00N 36°48' W 008°24'2 2.9
2017-Dec-09 11:25N 36°48' W 008°26'1 3.2
2017-Dec-09 11:00N 36°48' W 008°28'2 1.4
2017-Dec-09 09:20N 36°48' W 008°25'4 1.4
2017-Dec-09 06:39N 36°48' W 008°21'1 9.0
2017-Dec-09 06:30N 36°49' W 008°22'4 7.9
2017-Dec-09 06:00N 36°52' W 008°25'4 7.3
2017-Dec-09 05:30N 36°53' W 008°29'1 1.9
2017-Dec-09 05:00N 36°53' W 008°28'1 3.0
2017-Dec-09 04:31N 36°53' W 008°27'2 2.9
2017-Dec-09 03:57N 36°52' W 008°25'1 2.9
2017-Dec-09 03:28N 36°51' W 008°23'2 2.9
2017-Dec-09 02:51N 36°51' W 008°21'1 0.6
2017-Dec-09 01:00N 36°51' W 008°19'1 2.8
2017-Dec-09 00:30N 36°51' W 008°21'2 2.9
2017-Dec-08 23:57N 36°51' W 008°23'1 2.9
2017-Dec-08 23:30N 36°52' W 008°25'1 2.9
2017-Dec-08 23:00N 36°53' W 008°26'1 3.0
2017-Dec-08 22:30N 36°53' W 008°28'1 2.1
2017-Dec-08 21:58N 36°53' W 008°29'1 1.8
2017-Dec-08 21:31N 36°53' W 008°28'1 2.8
2017-Dec-08 21:00N 36°53' W 008°27'1 2.8
2017-Dec-08 20:30N 36°52' W 008°25'1 2.8
2017-Dec-08 19:58N 36°52' W 008°23'1 2.8
2017-Dec-08 19:30N 36°51' W 008°22'1 2.9
2017-Dec-08 19:00N 36°51' W 008°20'6 2.1
2017-Dec-08 16:15N 36°47' W 008°14'1 2.7
2017-Dec-08 16:00N 36°48' W 008°13'1 2.8
2017-Dec-08 15:30N 36°48' W 008°12'1 2.7
2017-Dec-08 15:00N 36°48' W 008°10'2 2.7
2017-Dec-08 14:23N 36°49' W 008°08'0 0.7
2017-Dec-08 13:59N 36°49' W 008°08'1 2.8
2017-Dec-08 13:29N 36°49' W 008°06'1 2.7
2017-Dec-08 13:00N 36°50' W 008°05'5 1.7
2017-Dec-08 09:50N 36°51' W 007°58'1 2.8
2017-Dec-08 09:30N 36°51' W 007°59'1 2.7
2017-Dec-08 08:58N 36°50' W 008°01'1 2.8
2017-Dec-08 08:29N 36°50' W 008°03'1 2.7
2017-Dec-08 08:00N 36°50' W 008°04'1 2.8
2017-Dec-08 07:30N 36°49' W 008°06'2 3.3
2017-Dec-08 06:57N 36°49' W 008°08'3 7.4
2017-Dec-08 06:29N 36°50' W 008°12'2 4.1
2017-Dec-08 06:00N 36°51' W 008°15'1 2.8
2017-Dec-08 05:30N 36°51' W 008°16'1 2.8
2017-Dec-08 05:00N 36°51' W 008°18'1 2.9
2017-Dec-08 04:30N 36°51' W 008°20'2 3.1
2017-Dec-08 04:00N 36°51' W 008°22'3 6.5
2017-Dec-08 03:30N 36°51' W 008°18'0 0.8
2017-Dec-08 03:00N 36°51' W 008°17'1 2.8
2017-Dec-08 02:30N 36°51' W 008°19'1 3.0
2017-Dec-08 02:00N 36°51' W 008°21'1 2.9
2017-Dec-08 01:30N 36°52' W 008°23'1 2.7
2017-Dec-08 01:00N 36°52' W 008°24'1 2.8
2017-Dec-08 00:30N 36°52' W 008°26'1 2.9
2017-Dec-08 00:00N 36°53' W 008°27'2 3.2
2017-Dec-07 23:30N 36°53' W 008°29'  

Dump ship's entire track history